sensor_id;sensor_type;location;lat;lon;timestamp;pressure;altitude;pressure_sealevel;temperature
66180;BMP280;52986;44.028;20.466;2023-11-21T00:01:51;97745.56;;;4.51
66180;BMP280;52986;44.028;20.466;2023-11-21T00:04:17;97750.06;;;4.54
66180;BMP280;52986;44.028;20.466;2023-11-21T00:06:42;97751.22;;;4.53
66180;BMP280;52986;44.028;20.466;2023-11-21T00:09:07;97749.72;;;4.49
66180;BMP280;52986;44.028;20.466;2023-11-21T00:11:33;97745.97;;;4.50
66180;BMP280;52986;44.028;20.466;2023-11-21T00:13:59;97747.41;;;4.54
66180;BMP280;52986;44.028;20.466;2023-11-21T00:16:24;97754.16;;;4.59
66180;BMP280;52986;44.028;20.466;2023-11-21T00:18:50;97745.34;;;4.65
66180;BMP280;52986;44.028;20.466;2023-11-21T00:21:16;97760.91;;;4.67
66180;BMP280;52986;44.028;20.466;2023-11-21T00:23:42;97762.81;;;4.63
66180;BMP280;52986;44.028;20.466;2023-11-21T00:26:07;97772.03;;;4.55
66180;BMP280;52986;44.028;20.466;2023-11-21T00:28:33;97775.16;;;4.46
66180;BMP280;52986;44.028;20.466;2023-11-21T00:30:58;97769.84;;;4.46
66180;BMP280;52986;44.028;20.466;2023-11-21T00:33:23;97774.81;;;4.44
66180;BMP280;52986;44.028;20.466;2023-11-21T00:35:50;97772.81;;;4.52
66180;BMP280;52986;44.028;20.466;2023-11-21T00:38:15;97765.91;;;4.58
66180;BMP280;52986;44.028;20.466;2023-11-21T00:40:45;97765.13;;;4.61
66180;BMP280;52986;44.028;20.466;2023-11-21T00:43:10;97758.69;;;4.62
66180;BMP280;52986;44.028;20.466;2023-11-21T00:45:36;97764.25;;;4.71
66180;BMP280;52986;44.028;20.466;2023-11-21T00:48:02;97757.44;;;4.70
66180;BMP280;52986;44.028;20.466;2023-11-21T00:50:30;97754.38;;;4.71
66180;BMP280;52986;44.028;20.466;2023-11-21T00:52:55;97761.84;;;4.80
66180;BMP280;52986;44.028;20.466;2023-11-21T00:55:21;97754.25;;;4.79
66180;BMP280;52986;44.028;20.466;2023-11-21T00:57:46;97756.56;;;4.77
66180;BMP280;52986;44.028;20.466;2023-11-21T01:00:12;97753.16;;;4.76
66180;BMP280;52986;44.028;20.466;2023-11-21T01:02:45;97745.66;;;4.71
66180;BMP280;52986;44.028;20.466;2023-11-21T01:05:12;97739.63;;;4.70
66180;BMP280;52986;44.028;20.466;2023-11-21T01:07:37;97740.38;;;4.71
66180;BMP280;52986;44.028;20.466;2023-11-21T01:10:03;97739.91;;;4.76
66180;BMP280;52986;44.028;20.466;2023-11-21T01:12:31;97746.78;;;4.74
66180;BMP280;52986;44.028;20.466;2023-11-21T01:14:56;97744.25;;;4.63
66180;BMP280;52986;44.028;20.466;2023-11-21T01:17:25;97737.16;;;4.56
66180;BMP280;52986;44.028;20.466;2023-11-21T01:19:50;97736.03;;;4.54
66180;BMP280;52986;44.028;20.466;2023-11-21T01:22:16;97735.69;;;4.52
66180;BMP280;52986;44.028;20.466;2023-11-21T01:24:41;97728.47;;;4.56
66180;BMP280;52986;44.028;20.466;2023-11-21T01:27:07;97724.28;;;4.55
66180;BMP280;52986;44.028;20.466;2023-11-21T01:29:32;97711.72;;;4.59
66180;BMP280;52986;44.028;20.466;2023-11-21T01:31:57;97698.44;;;4.59
66180;BMP280;52986;44.028;20.466;2023-11-21T01:34:23;97702.22;;;4.61
66180;BMP280;52986;44.028;20.466;2023-11-21T01:36:48;97702.22;;;4.61
66180;BMP280;52986;44.028;20.466;2023-11-21T01:39:14;97695.38;;;4.64
66180;BMP280;52986;44.028;20.466;2023-11-21T01:41:41;97700.66;;;4.64
66180;BMP280;52986;44.028;20.466;2023-11-21T01:44:09;97700.66;;;4.64
66180;BMP280;52986;44.028;20.466;2023-11-21T01:46:35;97690.47;;;4.62
66180;BMP280;52986;44.028;20.466;2023-11-21T01:49:01;97687.41;;;4.64
66180;BMP280;52986;44.028;20.466;2023-11-21T01:51:26;97686.34;;;4.58
66180;BMP280;52986;44.028;20.466;2023-11-21T01:53:52;97690.97;;;4.54
66180;BMP280;52986;44.028;20.466;2023-11-21T01:56:17;97691.41;;;4.49
66180;BMP280;52986;44.028;20.466;2023-11-21T01:58:44;97679.25;;;4.51
66180;BMP280;52986;44.028;20.466;2023-11-21T02:01:12;97684.50;;;4.55
66180;BMP280;52986;44.028;20.466;2023-11-21T02:03:37;97672.78;;;4.56
66180;BMP280;52986;44.028;20.466;2023-11-21T02:06:02;97683.28;;;4.59
66180;BMP280;52986;44.028;20.466;2023-11-21T02:08:28;97680.19;;;4.64
66180;BMP280;52986;44.028;20.466;2023-11-21T02:10:53;97679.88;;;4.59
66180;BMP280;52986;44.028;20.466;2023-11-21T02:13:19;97679.88;;;4.59
66180;BMP280;52986;44.028;20.466;2023-11-21T02:15:44;97679.47;;;4.60
66180;BMP280;52986;44.028;20.466;2023-11-21T02:18:09;97676.09;;;4.60
66180;BMP280;52986;44.028;20.466;2023-11-21T02:20:36;97671.19;;;4.58
66180;BMP280;52986;44.028;20.466;2023-11-21T02:23:04;97658.34;;;4.57
66180;BMP280;52986;44.028;20.466;2023-11-21T02:25:32;97666.75;;;4.52
66180;BMP280;52986;44.028;20.466;2023-11-21T02:28:00;97662.53;;;4.54
66180;BMP280;52986;44.028;20.466;2023-11-21T02:30:26;97659.41;;;4.59
66180;BMP280;52986;44.028;20.466;2023-11-21T02:32:53;97660.88;;;4.64
66180;BMP280;52986;44.028;20.466;2023-11-21T02:35:19;97652.94;;;4.64
66180;BMP280;52986;44.028;20.466;2023-11-21T02:37:48;97651.44;;;4.63
66180;BMP280;52986;44.028;20.466;2023-11-21T02:40:13;97645.72;;;4.64
66180;BMP280;52986;44.028;20.466;2023-11-21T02:42:43;97650.25;;;4.67
66180;BMP280;52986;44.028;20.466;2023-11-21T02:45:09;97641.88;;;4.69
66180;BMP280;52986;44.028;20.466;2023-11-21T02:47:37;97636.44;;;4.76
66180;BMP280;52986;44.028;20.466;2023-11-21T02:50:03;97636.03;;;4.78
66180;BMP280;52986;44.028;20.466;2023-11-21T02:52:29;97634.63;;;4.73
66180;BMP280;52986;44.028;20.466;2023-11-21T02:54:54;97625.97;;;4.69
66180;BMP280;52986;44.028;20.466;2023-11-21T02:57:20;97621.00;;;4.71
66180;BMP280;52986;44.028;20.466;2023-11-21T02:59:45;97621.72;;;4.75
66180;BMP280;52986;44.028;20.466;2023-11-21T03:02:11;97625.84;;;4.76
66180;BMP280;52986;44.028;20.466;2023-11-21T03:04:36;97632.31;;;4.75
66180;BMP280;52986;44.028;20.466;2023-11-21T03:07:01;97630.13;;;4.70
66180;BMP280;52986;44.028;20.466;2023-11-21T03:09:27;97632.16;;;4.59
66180;BMP280;52986;44.028;20.466;2023-11-21T03:11:53;97621.22;;;4.57
66180;BMP280;52986;44.028;20.466;2023-11-21T03:14:19;97624.28;;;4.55
66180;BMP280;52986;44.028;20.466;2023-11-21T03:16:44;97628.31;;;4.63
66180;BMP280;52986;44.028;20.466;2023-11-21T03:19:11;97630.22;;;4.63
66180;BMP280;52986;44.028;20.466;2023-11-21T03:21:36;97626.75;;;4.66
66180;BMP280;52986;44.028;20.466;2023-11-21T03:24:02;97620.31;;;4.67
66180;BMP280;52986;44.028;20.466;2023-11-21T03:26:27;97622.50;;;4.72
66180;BMP280;52986;44.028;20.466;2023-11-21T03:28:53;97607.72;;;4.71
66180;BMP280;52986;44.028;20.466;2023-11-21T03:31:18;97615.28;;;4.72
66180;BMP280;52986;44.028;20.466;2023-11-21T03:33:45;97610.75;;;4.73
66180;BMP280;52986;44.028;20.466;2023-11-21T03:36:11;97595.22;;;4.71
66180;BMP280;52986;44.028;20.466;2023-11-21T03:38:36;97601.22;;;4.76
66180;BMP280;52986;44.028;20.466;2023-11-21T03:41:03;97614.94;;;4.70
66180;BMP280;52986;44.028;20.466;2023-11-21T03:43:29;97615.34;;;4.69
66180;BMP280;52986;44.028;20.466;2023-11-21T03:45:54;97608.75;;;4.54
66180;BMP280;52986;44.028;20.466;2023-11-21T03:48:19;97609.59;;;4.47
66180;BMP280;52986;44.028;20.466;2023-11-21T03:50:45;97614.25;;;4.39
66180;BMP280;52986;44.028;20.466;2023-11-21T03:53:12;97597.94;;;4.41
66180;BMP280;52986;44.028;20.466;2023-11-21T03:55:38;97600.97;;;4.43
66180;BMP280;52986;44.028;20.466;2023-11-21T03:58:03;97596.34;;;4.47
66180;BMP280;52986;44.028;20.466;2023-11-21T04:00:28;97586.38;;;4.55
66180;BMP280;52986;44.028;20.466;2023-11-21T04:02:54;97588.94;;;4.62
66180;BMP280;52986;44.028;20.466;2023-11-21T04:05:20;97590.66;;;4.72
66180;BMP280;52986;44.028;20.466;2023-11-21T04:07:48;97572.47;;;4.74
66180;BMP280;52986;44.028;20.466;2023-11-21T04:10:14;97573.09;;;4.78
66180;BMP280;52986;44.028;20.466;2023-11-21T04:12:41;97570.47;;;4.78
66180;BMP280;52986;44.028;20.466;2023-11-21T04:15:06;97579.13;;;4.82
66180;BMP280;52986;44.028;20.466;2023-11-21T04:17:34;97587.41;;;4.84
66180;BMP280;52986;44.028;20.466;2023-11-21T04:20:00;97587.38;;;4.88
66180;BMP280;52986;44.028;20.466;2023-11-21T04:22:25;97586.63;;;4.87
66180;BMP280;52986;44.028;20.466;2023-11-21T04:24:50;97584.78;;;4.84
66180;BMP280;52986;44.028;20.466;2023-11-21T04:27:16;97588.94;;;4.85
66180;BMP280;52986;44.028;20.466;2023-11-21T04:29:43;97584.38;;;4.86
66180;BMP280;52986;44.028;20.466;2023-11-21T04:32:09;97588.94;;;4.85
66180;BMP280;52986;44.028;20.466;2023-11-21T04:34:35;97582.81;;;4.88
66180;BMP280;52986;44.028;20.466;2023-11-21T04:37:00;97585.44;;;4.92
66180;BMP280;52986;44.028;20.466;2023-11-21T04:39:26;97582.94;;;4.81
66180;BMP280;52986;44.028;20.466;2023-11-21T04:41:51;97574.75;;;4.72
66180;BMP280;52986;44.028;20.466;2023-11-21T04:44:17;97567.53;;;4.72
66180;BMP280;52986;44.028;20.466;2023-11-21T04:46:42;97560.75;;;4.71
66180;BMP280;52986;44.028;20.466;2023-11-21T04:49:08;97564.81;;;4.76
66180;BMP280;52986;44.028;20.466;2023-11-21T04:51:34;97561.44;;;4.76
66180;BMP280;52986;44.028;20.466;2023-11-21T04:53:59;97565.81;;;4.62
66180;BMP280;52986;44.028;20.466;2023-11-21T04:56:24;97572.78;;;4.53
66180;BMP280;52986;44.028;20.466;2023-11-21T04:58:50;97569.66;;;4.58
66180;BMP280;52986;44.028;20.466;2023-11-21T05:01:15;97568.50;;;4.59
66180;BMP280;52986;44.028;20.466;2023-11-21T05:03:41;97579.84;;;4.59
66180;BMP280;52986;44.028;20.466;2023-11-21T05:06:09;97570.75;;;4.60
66180;BMP280;52986;44.028;20.466;2023-11-21T05:08:35;97578.25;;;4.65
66180;BMP280;52986;44.028;20.466;2023-11-21T05:11:02;97577.97;;;4.60
66180;BMP280;52986;44.028;20.466;2023-11-21T05:13:28;97572.91;;;4.69
66180;BMP280;52986;44.028;20.466;2023-11-21T05:15:56;97574.63;;;4.79
66180;BMP280;52986;44.028;20.466;2023-11-21T05:18:22;97582.06;;;4.88
66180;BMP280;52986;44.028;20.466;2023-11-21T05:20:48;97587.25;;;4.95
66180;BMP280;52986;44.028;20.466;2023-11-21T05:23:13;97590.19;;;5.00
66180;BMP280;52986;44.028;20.466;2023-11-21T05:25:38;97586.34;;;5.05
66180;BMP280;52986;44.028;20.466;2023-11-21T05:28:04;97596.53;;;5.07
66180;BMP280;52986;44.028;20.466;2023-11-21T05:30:29;97590.88;;;5.05
66180;BMP280;52986;44.028;20.466;2023-11-21T05:32:54;97590.81;;;5.08
66180;BMP280;52986;44.028;20.466;2023-11-21T05:35:20;97587.34;;;5.11
66180;BMP280;52986;44.028;20.466;2023-11-21T05:37:46;97585.44;;;5.12
66180;BMP280;52986;44.028;20.466;2023-11-21T05:40:12;97583.88;;;5.14
66180;BMP280;52986;44.028;20.466;2023-11-21T05:42:39;97586.06;;;5.19
66180;BMP280;52986;44.028;20.466;2023-11-21T05:45:04;97576.88;;;5.24
66180;BMP280;52986;44.028;20.466;2023-11-21T05:47:43;97576.06;;;5.27
66180;BMP280;52986;44.028;20.466;2023-11-21T05:50:13;97585.13;;;5.29
66180;BMP280;52986;44.028;20.466;2023-11-21T05:52:44;97578.31;;;5.28
66180;BMP280;52986;44.028;20.466;2023-11-21T05:55:10;97576.56;;;5.22
66180;BMP280;52986;44.028;20.466;2023-11-21T05:57:37;97569.72;;;5.21
66180;BMP280;52986;44.028;20.466;2023-11-21T06:00:04;97577.63;;;5.24
66180;BMP280;52986;44.028;20.466;2023-11-21T06:02:40;97583.69;;;5.25
66180;BMP280;52986;44.028;20.466;2023-11-21T06:05:08;97582.16;;;5.27
66180;BMP280;52986;44.028;20.466;2023-11-21T06:07:34;97575.19;;;5.34
66180;BMP280;52986;44.028;20.466;2023-11-21T06:10:02;97571.31;;;5.38
66180;BMP280;52986;44.028;20.466;2023-11-21T06:12:28;97572.34;;;5.44
66180;BMP280;52986;44.028;20.466;2023-11-21T06:14:53;97571.09;;;5.49
66180;BMP280;52986;44.028;20.466;2023-11-21T06:17:19;97566.06;;;5.54
66180;BMP280;52986;44.028;20.466;2023-11-21T06:19:44;97575.34;;;5.63
66180;BMP280;52986;44.028;20.466;2023-11-21T06:22:11;97577.56;;;5.68
66180;BMP280;52986;44.028;20.466;2023-11-21T06:24:36;97563.38;;;5.74
66180;BMP280;52986;44.028;20.466;2023-11-21T06:27:04;97557.16;;;5.81
66180;BMP280;52986;44.028;20.466;2023-11-21T06:29:30;97555.94;;;5.85
66180;BMP280;52986;44.028;20.466;2023-11-21T06:31:55;97556.63;;;5.90
66180;BMP280;52986;44.028;20.466;2023-11-21T06:34:20;97560.31;;;5.92
66180;BMP280;52986;44.028;20.466;2023-11-21T06:36:47;97566.56;;;5.85
66180;BMP280;52986;44.028;20.466;2023-11-21T06:39:12;97573.13;;;5.97
66180;BMP280;52986;44.028;20.466;2023-11-21T06:41:40;97565.09;;;6.01
66180;BMP280;52986;44.028;20.466;2023-11-21T06:44:05;97573.31;;;5.90
66180;BMP280;52986;44.028;20.466;2023-11-21T06:46:31;97578.44;;;5.97
66180;BMP280;52986;44.028;20.466;2023-11-21T06:48:56;97575.97;;;6.06
66180;BMP280;52986;44.028;20.466;2023-11-21T06:51:22;97570.16;;;6.11
66180;BMP280;52986;44.028;20.466;2023-11-21T06:53:47;97565.00;;;6.21
66180;BMP280;52986;44.028;20.466;2023-11-21T06:56:18;97558.38;;;6.29
66180;BMP280;52986;44.028;20.466;2023-11-21T06:58:45;97557.44;;;6.35
66180;BMP280;52986;44.028;20.466;2023-11-21T07:01:12;97559.03;;;6.49
66180;BMP280;52986;44.028;20.466;2023-11-21T07:03:38;97568.69;;;6.59
66180;BMP280;52986;44.028;20.466;2023-11-21T07:06:04;97577.06;;;6.74
66180;BMP280;52986;44.028;20.466;2023-11-21T07:08:29;97570.06;;;6.80
66180;BMP280;52986;44.028;20.466;2023-11-21T07:10:55;97573.28;;;6.88
66180;BMP280;52986;44.028;20.466;2023-11-21T07:13:20;97566.78;;;6.89
66180;BMP280;52986;44.028;20.466;2023-11-21T07:15:46;97562.56;;;6.91
66180;BMP280;52986;44.028;20.466;2023-11-21T07:18:13;97554.16;;;6.93
66180;BMP280;52986;44.028;20.466;2023-11-21T07:20:38;97556.47;;;6.91
66180;BMP280;52986;44.028;20.466;2023-11-21T07:23:04;97559.47;;;6.93
66180;BMP280;52986;44.028;20.466;2023-11-21T07:25:29;97565.44;;;6.97
66180;BMP280;52986;44.028;20.466;2023-11-21T07:27:54;97566.84;;;7.01
66180;BMP280;52986;44.028;20.466;2023-11-21T07:30:20;97565.00;;;6.98
66180;BMP280;52986;44.028;20.466;2023-11-21T07:32:48;97565.25;;;7.04
66180;BMP280;52986;44.028;20.466;2023-11-21T07:35:13;97564.75;;;7.09
66180;BMP280;52986;44.028;20.466;2023-11-21T07:37:39;97558.06;;;7.17
66180;BMP280;52986;44.028;20.466;2023-11-21T07:40:05;97555.72;;;7.19
66180;BMP280;52986;44.028;20.466;2023-11-21T07:42:31;97559.34;;;7.25
66180;BMP280;52986;44.028;20.466;2023-11-21T07:44:56;97553.47;;;7.18
66180;BMP280;52986;44.028;20.466;2023-11-21T07:47:21;97546.25;;;7.18
66180;BMP280;52986;44.028;20.466;2023-11-21T07:49:47;97538.78;;;7.26
66180;BMP280;52986;44.028;20.466;2023-11-21T07:52:13;97532.41;;;7.36
66180;BMP280;52986;44.028;20.466;2023-11-21T07:54:41;97524.97;;;7.44
66180;BMP280;52986;44.028;20.466;2023-11-21T07:57:07;97515.28;;;7.50
66180;BMP280;52986;44.028;20.466;2023-11-21T07:59:32;97504.41;;;7.57
66180;BMP280;52986;44.028;20.466;2023-11-21T08:01:58;97514.31;;;7.56
66180;BMP280;52986;44.028;20.466;2023-11-21T08:04:23;97510.69;;;7.50
66180;BMP280;52986;44.028;20.466;2023-11-21T08:06:48;97506.31;;;7.44
66180;BMP280;52986;44.028;20.466;2023-11-21T08:09:14;97502.47;;;7.32
66180;BMP280;52986;44.028;20.466;2023-11-21T08:11:40;97505.25;;;7.28
66180;BMP280;52986;44.028;20.466;2023-11-21T08:14:06;97503.53;;;7.35
66180;BMP280;52986;44.028;20.466;2023-11-21T08:16:31;97505.59;;;7.43
66180;BMP280;52986;44.028;20.466;2023-11-21T08:18:57;97496.94;;;7.39
66180;BMP280;52986;44.028;20.466;2023-11-21T08:21:22;97493.94;;;7.37
66180;BMP280;52986;44.028;20.466;2023-11-21T08:23:52;97498.84;;;7.39
66180;BMP280;52986;44.028;20.466;2023-11-21T08:26:23;97497.72;;;7.52
66180;BMP280;52986;44.028;20.466;2023-11-21T08:28:49;97503.34;;;7.67
66180;BMP280;52986;44.028;20.466;2023-11-21T08:31:14;97496.31;;;7.73
66180;BMP280;52986;44.028;20.466;2023-11-21T08:33:40;97495.88;;;7.75
66180;BMP280;52986;44.028;20.466;2023-11-21T08:36:07;97497.56;;;7.81
66180;BMP280;52986;44.028;20.466;2023-11-21T08:38:34;97500.22;;;7.81
66180;BMP280;52986;44.028;20.466;2023-11-21T08:41:06;97499.06;;;7.82
66180;BMP280;52986;44.028;20.466;2023-11-21T08:43:34;97494.59;;;7.79
66180;BMP280;52986;44.028;20.466;2023-11-21T08:46:00;97499.19;;;7.79
66180;BMP280;52986;44.028;20.466;2023-11-21T08:48:25;97492.06;;;7.88
66180;BMP280;52986;44.028;20.466;2023-11-21T08:50:50;97484.38;;;7.90
66180;BMP280;52986;44.028;20.466;2023-11-21T08:53:16;97484.66;;;7.92
66180;BMP280;52986;44.028;20.466;2023-11-21T08:55:42;97476.03;;;8.01
66180;BMP280;52986;44.028;20.466;2023-11-21T08:58:09;97471.19;;;8.09
66180;BMP280;52986;44.028;20.466;2023-11-21T09:00:34;97474.19;;;8.11
66180;BMP280;52986;44.028;20.466;2023-11-21T09:03:01;97463.69;;;8.16
66180;BMP280;52986;44.028;20.466;2023-11-21T09:05:27;97467.50;;;8.28
66180;BMP280;52986;44.028;20.466;2023-11-21T09:07:53;97462.47;;;8.30
66180;BMP280;52986;44.028;20.466;2023-11-21T09:10:18;97452.72;;;8.36
66180;BMP280;52986;44.028;20.466;2023-11-21T09:12:44;97453.03;;;8.51
66180;BMP280;52986;44.028;20.466;2023-11-21T09:15:10;97451.47;;;8.63
66180;BMP280;52986;44.028;20.466;2023-11-21T09:17:36;97444.38;;;8.69
66180;BMP280;52986;44.028;20.466;2023-11-21T09:20:02;97446.63;;;8.70
66180;BMP280;52986;44.028;20.466;2023-11-21T09:22:31;97444.88;;;8.76
66180;BMP280;52986;44.028;20.466;2023-11-21T09:24:57;97441.00;;;8.77
66180;BMP280;52986;44.028;20.466;2023-11-21T09:27:23;97448.34;;;8.86
66180;BMP280;52986;44.028;20.466;2023-11-21T09:29:49;97430.66;;;8.79
66180;BMP280;52986;44.028;20.466;2023-11-21T09:32:14;97423.66;;;8.73
66180;BMP280;52986;44.028;20.466;2023-11-21T09:34:41;97426.88;;;8.68
66180;BMP280;52986;44.028;20.466;2023-11-21T09:37:07;97419.81;;;8.74
66180;BMP280;52986;44.028;20.466;2023-11-21T09:39:33;97411.84;;;8.83
66180;BMP280;52986;44.028;20.466;2023-11-21T09:42:12;97407.78;;;8.78
66180;BMP280;52986;44.028;20.466;2023-11-21T09:47:10;97385.44;;;8.85
66180;BMP280;52986;44.028;20.466;2023-11-21T09:49:37;97376.72;;;8.94
66180;BMP280;52986;44.028;20.466;2023-11-21T09:52:03;97378.94;;;8.95
66180;BMP280;52986;44.028;20.466;2023-11-21T09:54:29;97383.41;;;8.98
66180;BMP280;52986;44.028;20.466;2023-11-21T09:56:57;97391.63;;;9.13
66180;BMP280;52986;44.028;20.466;2023-11-21T09:59:23;97382.69;;;9.07
66180;BMP280;52986;44.028;20.466;2023-11-21T10:01:49;97369.91;;;9.02
66180;BMP280;52986;44.028;20.466;2023-11-21T10:04:15;97373.91;;;8.97
66180;BMP280;52986;44.028;20.466;2023-11-21T10:06:42;97370.47;;;8.97
66180;BMP280;52986;44.028;20.466;2023-11-21T10:09:12;97362.34;;;9.00
66180;BMP280;52986;44.028;20.466;2023-11-21T10:11:42;97368.88;;;8.99
66180;BMP280;52986;44.028;20.466;2023-11-21T10:14:12;97369.19;;;9.01
66180;BMP280;52986;44.028;20.466;2023-11-21T10:16:40;97365.31;;;9.02
66180;BMP280;52986;44.028;20.466;2023-11-21T10:19:06;97370.41;;;9.09
66180;BMP280;52986;44.028;20.466;2023-11-21T10:21:35;97359.09;;;9.05
66180;BMP280;52986;44.028;20.466;2023-11-21T10:24:00;97365.06;;;9.09
66180;BMP280;52986;44.028;20.466;2023-11-21T10:26:28;97356.31;;;9.18
66180;BMP280;52986;44.028;20.466;2023-11-21T10:29:02;97353.34;;;9.25
66180;BMP280;52986;44.028;20.466;2023-11-21T10:31:31;97347.00;;;9.32
66180;BMP280;52986;44.028;20.466;2023-11-21T10:34:19;97349.53;;;9.35
66180;BMP280;52986;44.028;20.466;2023-11-21T10:36:45;97343.44;;;9.35
66180;BMP280;52986;44.028;20.466;2023-11-21T10:39:20;97357.25;;;9.33
66180;BMP280;52986;44.028;20.466;2023-11-21T10:41:49;97349.50;;;9.26
66180;BMP280;52986;44.028;20.466;2023-11-21T10:44:16;97357.69;;;9.32
66180;BMP280;52986;44.028;20.466;2023-11-21T10:46:47;97364.97;;;9.31
66180;BMP280;52986;44.028;20.466;2023-11-21T10:49:17;97368.69;;;9.34
66180;BMP280;52986;44.028;20.466;2023-11-21T10:51:45;97361.81;;;9.33
66180;BMP280;52986;44.028;20.466;2023-11-21T10:54:17;97366.16;;;9.21
66180;BMP280;52986;44.028;20.466;2023-11-21T10:56:42;97357.97;;;9.25
66180;BMP280;52986;44.028;20.466;2023-11-21T10:59:12;97361.25;;;9.29
66180;BMP280;52986;44.028;20.466;2023-11-21T11:01:42;97357.41;;;9.30
66180;BMP280;52986;44.028;20.466;2023-11-21T11:04:10;97352.78;;;9.30
66180;BMP280;52986;44.028;20.466;2023-11-21T11:07:05;97353.69;;;9.27
66180;BMP280;52986;44.028;20.466;2023-11-21T11:09:31;97352.34;;;9.32
66180;BMP280;52986;44.028;20.466;2023-11-21T11:11:59;97349.38;;;9.30
66180;BMP280;52986;44.028;20.466;2023-11-21T11:14:26;97341.22;;;9.33
66180;BMP280;52986;44.028;20.466;2023-11-21T11:16:54;97340.44;;;9.33
66180;BMP280;52986;44.028;20.466;2023-11-21T11:19:20;97333.66;;;9.32
66180;BMP280;52986;44.028;20.466;2023-11-21T11:22:16;97322.66;;;9.30
66180;BMP280;52986;44.028;20.466;2023-11-21T11:30:15;97307.81;;;9.29
66180;BMP280;52986;44.028;20.466;2023-11-21T11:32:58;97302.75;;;9.31
66180;BMP280;52986;44.028;20.466;2023-11-21T11:35:34;97299.47;;;9.27
66180;BMP280;52986;44.028;20.466;2023-11-21T11:38:03;97291.78;;;9.29
66180;BMP280;52986;44.028;20.466;2023-11-21T11:40:41;97284.34;;;9.42
66180;BMP280;52986;44.028;20.466;2023-11-21T11:43:09;97283.75;;;9.38
66180;BMP280;52986;44.028;20.466;2023-11-21T11:45:35;97278.44;;;9.47
66180;BMP280;52986;44.028;20.466;2023-11-21T11:48:01;97284.81;;;9.40
66180;BMP280;52986;44.028;20.466;2023-11-21T11:50:28;97289.84;;;9.38
66180;BMP280;52986;44.028;20.466;2023-11-21T11:52:54;97298.00;;;9.44
66180;BMP280;52986;44.028;20.466;2023-11-21T11:55:23;97287.47;;;9.50
66180;BMP280;52986;44.028;20.466;2023-11-21T11:57:53;97288.69;;;9.39
66180;BMP280;52986;44.028;20.466;2023-11-21T12:00:33;97288.50;;;9.34
66180;BMP280;52986;44.028;20.466;2023-11-21T12:03:03;97274.53;;;9.21
66180;BMP280;52986;44.028;20.466;2023-11-21T12:05:30;97272.47;;;9.16
66180;BMP280;52986;44.028;20.466;2023-11-21T12:08:07;97273.94;;;9.17
66180;BMP280;52986;44.028;20.466;2023-11-21T12:10:34;97267.13;;;9.34
66180;BMP280;52986;44.028;20.466;2023-11-21T12:13:01;97265.03;;;9.20
66180;BMP280;52986;44.028;20.466;2023-11-21T12:15:27;97261.19;;;9.30
66180;BMP280;52986;44.028;20.466;2023-11-21T12:17:57;97241.00;;;9.20
66180;BMP280;52986;44.028;20.466;2023-11-21T12:20:24;97232.09;;;9.14
66180;BMP280;52986;44.028;20.466;2023-11-21T12:22:52;97239.81;;;9.30
66180;BMP280;52986;44.028;20.466;2023-11-21T12:25:19;97239.81;;;9.39
66180;BMP280;52986;44.028;20.466;2023-11-21T12:27:45;97248.16;;;9.41
66180;BMP280;52986;44.028;20.466;2023-11-21T12:30:12;97242.50;;;9.30
66180;BMP280;52986;44.028;20.466;2023-11-21T12:32:43;97240.66;;;9.08
66180;BMP280;52986;44.028;20.466;2023-11-21T12:35:12;97230.88;;;9.05
66180;BMP280;52986;44.028;20.466;2023-11-21T12:37:38;97229.97;;;9.08
66180;BMP280;52986;44.028;20.466;2023-11-21T12:40:06;97235.94;;;9.13
66180;BMP280;52986;44.028;20.466;2023-11-21T12:42:32;97221.34;;;8.95
66180;BMP280;52986;44.028;20.466;2023-11-21T12:47:34;97212.13;;;8.78
66180;BMP280;52986;44.028;20.466;2023-11-21T12:50:02;97204.16;;;8.87
66180;BMP280;52986;44.028;20.466;2023-11-21T12:52:27;97205.94;;;8.81
66180;BMP280;52986;44.028;20.466;2023-11-21T12:54:53;97205.94;;;8.81
66180;BMP280;52986;44.028;20.466;2023-11-21T12:57:19;97204.44;;;8.80
66180;BMP280;52986;44.028;20.466;2023-11-21T12:59:45;97199.66;;;8.75
66180;BMP280;52986;44.028;20.466;2023-11-21T13:02:12;97182.63;;;8.81
66180;BMP280;52986;44.028;20.466;2023-11-21T13:04:39;97178.81;;;8.92
66180;BMP280;52986;44.028;20.466;2023-11-21T13:07:05;97186.06;;;8.91
66180;BMP280;52986;44.028;20.466;2023-11-21T13:09:39;97193.91;;;8.95
66180;BMP280;52986;44.028;20.466;2023-11-21T13:12:06;97191.28;;;9.04
66180;BMP280;52986;44.028;20.466;2023-11-21T13:14:34;97178.06;;;9.09
66180;BMP280;52986;44.028;20.466;2023-11-21T13:16:59;97177.59;;;9.02
66180;BMP280;52986;44.028;20.466;2023-11-21T13:19:24;97173.59;;;8.97
66180;BMP280;52986;44.028;20.466;2023-11-21T13:21:52;97163.50;;;9.01
66180;BMP280;52986;44.028;20.466;2023-11-21T13:24:18;97178.34;;;9.02
66180;BMP280;52986;44.028;20.466;2023-11-21T13:26:43;97176.00;;;9.04
66180;BMP280;52986;44.028;20.466;2023-11-21T13:29:12;97168.69;;;9.14
66180;BMP280;52986;44.028;20.466;2023-11-21T13:31:38;97169.75;;;9.17
66180;BMP280;52986;44.028;20.466;2023-11-21T13:34:04;97157.84;;;9.27
66180;BMP280;52986;44.028;20.466;2023-11-21T13:36:33;97169.72;;;9.26
66180;BMP280;52986;44.028;20.466;2023-11-21T13:39:00;97157.41;;;9.19
66180;BMP280;52986;44.028;20.466;2023-11-21T13:41:32;97157.28;;;9.23
66180;BMP280;52986;44.028;20.466;2023-11-21T13:43:58;97187.09;;;9.49
66180;BMP280;52986;44.028;20.466;2023-11-21T13:46:37;97186.81;;;9.37
66180;BMP280;52986;44.028;20.466;2023-11-21T13:49:03;97201.78;;;9.26
66180;BMP280;52986;44.028;20.466;2023-11-21T13:51:28;97212.81;;;9.28
66180;BMP280;52986;44.028;20.466;2023-11-21T13:54:04;97219.63;;;9.20
66180;BMP280;52986;44.028;20.466;2023-11-21T13:56:34;97224.19;;;9.01
66180;BMP280;52986;44.028;20.466;2023-11-21T13:59:00;97205.66;;;9.06
66180;BMP280;52986;44.028;20.466;2023-11-21T14:01:34;97213.84;;;9.12
66180;BMP280;52986;44.028;20.466;2023-11-21T14:04:32;97196.63;;;9.22
66180;BMP280;52986;44.028;20.466;2023-11-21T14:06:57;97178.94;;;9.25
66180;BMP280;52986;44.028;20.466;2023-11-21T14:09:26;97150.00;;;9.23
66180;BMP280;52986;44.028;20.466;2023-11-21T14:11:58;97150.72;;;9.33
66180;BMP280;52986;44.028;20.466;2023-11-21T14:14:27;97142.69;;;9.33
66180;BMP280;52986;44.028;20.466;2023-11-21T14:16:53;97144.47;;;9.45
66180;BMP280;52986;44.028;20.466;2023-11-21T14:19:21;97160.06;;;9.47